createdAt,value
2019-05-18T00:00:44.406Z,74.63
2019-05-18T00:03:10.317Z,73.46
2019-05-18T00:05:36.258Z,73.74
2019-05-18T00:08:02.384Z,73.64
2019-05-18T00:10:28.465Z,73.68
2019-05-18T00:12:54.964Z,73.77
2019-05-18T00:15:21.414Z,73.38
2019-05-18T00:17:47.404Z,73.39
2019-05-18T00:20:14.024Z,73.32
2019-05-18T00:22:39.938Z,73.35
2019-05-18T00:25:07.106Z,73.59
2019-05-18T00:27:33.215Z,74.25
2019-05-18T00:29:59.271Z,74.00
2019-05-18T00:32:25.408Z,74.73
2019-05-18T00:34:51.368Z,74.63
2019-05-18T00:37:17.679Z,73.76
2019-05-18T00:39:43.620Z,74.37
2019-05-18T00:42:09.639Z,74.57
2019-05-18T00:44:50.463Z,73.71
2019-05-18T00:47:16.669Z,74.82
2019-05-18T00:49:42.802Z,74.03
2019-05-18T00:52:08.702Z,73.29
2019-05-18T00:54:34.758Z,73.75
2019-05-18T00:57:00.769Z,72.96
2019-05-18T00:59:26.776Z,72.58
2019-05-18T01:01:52.836Z,72.34
2019-05-18T01:04:18.924Z,71.88
2019-05-18T01:06:45.977Z,72.64
2019-05-18T01:09:12.057Z,72.21
2019-05-18T01:11:37.957Z,72.62
2019-05-18T01:14:04.373Z,72.33
2019-05-18T01:16:30.376Z,72.65
2019-05-18T01:18:56.460Z,73.31
2019-05-18T01:21:22.580Z,73.93
2019-05-18T01:23:48.644Z,74.33
2019-05-18T01:26:14.891Z,74.90
2019-05-18T01:28:41.223Z,75.30
2019-05-18T01:31:07.228Z,74.44
2019-05-18T01:33:34.295Z,74.83
2019-05-18T01:36:00.259Z,74.78
2019-05-18T01:38:26.219Z,74.21
2019-05-18T01:40:52.413Z,76.25
2019-05-18T01:43:18.667Z,77.00
2019-05-18T01:45:44.616Z,77.26
2019-05-18T01:48:14.139Z,76.61
2019-05-18T01:50:39.597Z,77.40
2019-05-18T01:53:05.502Z,77.98
2019-05-18T01:55:31.538Z,78.94
2019-05-18T01:57:57.451Z,79.52
2019-05-18T02:00:23.739Z,78.15
2019-05-18T02:02:49.650Z,79.08
2019-05-18T02:05:15.691Z,80.34
2019-05-18T02:07:41.606Z,82.05
2019-05-18T02:10:08.528Z,80.79
2019-05-18T02:12:34.646Z,80.18
2019-05-18T02:15:00.591Z,77.50
2019-05-18T02:17:26.498Z,75.67
2019-05-18T02:19:53.077Z,75.70
2019-05-18T02:22:19.097Z,75.17
2019-05-18T02:24:45.178Z,75.06
2019-05-18T02:27:11.109Z,74.27
2019-05-18T02:29:37.140Z,74.50
2019-05-18T02:32:03.263Z,74.19
2019-05-18T02:34:29.336Z,73.50
2019-05-18T02:36:55.226Z,74.71
2019-05-18T02:39:21.493Z,74.17
2019-05-18T02:41:47.660Z,73.78
2019-05-18T02:44:13.601Z,72.55
2019-05-18T02:46:39.543Z,72.90
2019-05-18T02:49:05.603Z,73.18
2019-05-18T02:51:31.510Z,73.25
2019-05-18T02:53:57.793Z,74.46
2019-05-18T02:56:23.836Z,75.95
2019-05-18T02:58:49.876Z,73.97
2019-05-18T03:01:16.054Z,73.73
2019-05-18T03:03:42.034Z,73.19
2019-05-18T03:06:08.061Z,73.73
2019-05-18T03:08:34.293Z,73.79
2019-05-18T03:11:00.222Z,73.53
2019-05-18T03:13:26.394Z,74.23
2019-05-18T03:15:52.543Z,73.86
2019-05-18T03:18:18.978Z,75.53
2019-05-18T03:20:45.207Z,75.00
2019-05-18T03:23:11.226Z,74.40
2019-05-18T03:25:37.136Z,74.62
2019-05-18T03:28:03.466Z,73.80
2019-05-18T03:30:29.520Z,73.91
2019-05-18T03:32:55.465Z,74.81
2019-05-18T03:35:21.448Z,74.20
2019-05-18T03:37:47.489Z,74.82
2019-05-18T03:40:13.535Z,74.00
2019-05-18T03:42:39.436Z,74.65
2019-05-18T03:45:06.929Z,76.04
2019-05-18T03:47:33.939Z,74.20
2019-05-18T03:49:59.849Z,73.30
2019-05-18T03:52:25.819Z,72.21
2019-05-18T03:54:51.823Z,73.28
2019-05-18T03:57:18.023Z,73.82
2019-05-18T03:59:43.971Z,72.98
2019-05-18T04:02:09.917Z,74.09
2019-05-18T04:04:35.957Z,74.78
2019-05-18T04:07:01.862Z,73.36
2019-05-18T04:09:27.828Z,73.17
2019-05-18T04:11:53.795Z,73.02
2019-05-18T04:14:19.759Z,72.85
2019-05-18T04:16:45.785Z,73.54
2019-05-18T04:19:11.864Z,73.62
2019-05-18T04:21:37.852Z,74.75
2019-05-18T04:24:03.815Z,74.99
2019-05-18T04:26:29.724Z,76.83
2019-05-18T04:28:56.682Z,76.46
2019-05-18T04:31:22.571Z,76.25
2019-05-18T04:33:48.523Z,75.26
2019-05-18T04:36:14.429Z,71.52
2019-05-18T04:38:40.386Z,68.44
2019-05-18T04:41:06.451Z,66.77
2019-05-18T04:43:32.522Z,65.48
2019-05-18T04:45:58.445Z,63.90
2019-05-18T04:48:24.575Z,63.16
2019-05-18T04:50:50.478Z,62.22
2019-05-18T04:53:16.531Z,60.71
2019-05-18T04:55:42.451Z,60.85
2019-05-18T04:58:08.399Z,60.04
2019-05-18T05:00:34.488Z,59.49
2019-05-18T05:03:00.439Z,59.25
2019-05-18T05:05:26.387Z,59.42
2019-05-18T05:07:52.327Z,59.35
2019-05-18T05:10:18.275Z,59.11
2019-05-18T05:12:44.315Z,57.82
2019-05-18T05:15:10.687Z,57.36
2019-05-18T05:17:36.604Z,56.78
2019-05-18T05:20:18.329Z,55.93
2019-05-18T05:22:32.270Z,55.27
2019-05-18T05:24:59.319Z,55.17
2019-05-18T05:27:25.228Z,57.16
2019-05-18T05:29:51.165Z,59.38
2019-05-18T05:32:17.081Z,60.64
2019-05-18T05:34:43.073Z,61.54
2019-05-18T05:37:09.441Z,60.83
2019-05-18T05:39:35.546Z,60.94
2019-05-18T05:42:01.608Z,58.76
2019-05-18T05:44:27.679Z,58.84
2019-05-18T05:46:53.588Z,60.17
2019-05-18T05:49:19.536Z,60.61
2019-05-18T05:51:45.625Z,59.56
2019-05-18T05:54:11.599Z,60.01
2019-05-18T05:56:37.505Z,58.85
2019-05-18T05:59:03.508Z,57.25
2019-05-18T06:01:30.455Z,55.13
2019-05-18T06:03:56.444Z,53.90
2019-05-18T06:06:23.131Z,51.72
2019-05-18T06:08:49.167Z,50.52
2019-05-18T06:11:15.118Z,48.38
2019-05-18T06:13:41.059Z,47.41
2019-05-18T06:16:07.228Z,48.80
2019-05-18T06:18:33.238Z,51.11
2019-05-18T06:20:59.137Z,50.87
2019-05-18T06:23:25.055Z,48.30
2019-05-18T06:25:51.053Z,47.22
2019-05-18T06:28:16.971Z,45.28
2019-05-18T06:30:42.953Z,45.88
2019-05-18T06:33:08.964Z,47.50
2019-05-18T06:35:34.921Z,46.86
2019-05-18T06:38:00.969Z,47.09
2019-05-18T06:40:27.047Z,48.23
2019-05-18T06:42:52.969Z,47.10
2019-05-18T06:45:19.223Z,44.61
2019-05-18T06:47:48.264Z,45.89
2019-05-18T06:50:13.717Z,47.42
2019-05-18T06:52:39.835Z,47.85
2019-05-18T06:55:06.186Z,47.55
2019-05-18T06:57:32.895Z,47.81
2019-05-18T07:00:00.132Z,47.36
2019-05-18T07:02:27.165Z,47.07
2019-05-18T07:04:53.137Z,46.84
2019-05-18T07:07:19.238Z,50.06
2019-05-18T07:09:45.197Z,46.86
2019-05-18T07:12:11.220Z,47.66
2019-05-18T07:14:37.163Z,47.41
2019-05-18T07:17:03.170Z,46.83
2019-05-18T07:19:29.247Z,51.11
2019-05-18T07:21:55.192Z,50.13
2019-05-18T07:24:21.103Z,50.80
2019-05-18T07:26:47.054Z,54.62
2019-05-18T07:29:13.373Z,51.57
2019-05-18T07:31:39.451Z,47.69
2019-05-18T07:34:05.364Z,48.58
2019-05-18T07:36:31.314Z,49.12
2019-05-18T07:38:57.226Z,48.65
2019-05-18T07:41:23.266Z,46.23
2019-05-18T07:43:49.177Z,47.14
2019-05-18T07:46:15.122Z,46.92
2019-05-18T07:48:41.494Z,48.36
2019-05-18T07:51:07.715Z,46.92
2019-05-18T07:53:33.643Z,48.86
2019-05-18T07:55:59.615Z,49.59
2019-05-18T07:58:25.937Z,48.46
2019-05-18T08:00:52.894Z,51.41
2019-05-18T08:03:18.844Z,52.84
2019-05-18T08:05:44.980Z,51.21
2019-05-18T08:08:10.894Z,51.45
2019-05-18T08:10:37.146Z,51.02
2019-05-18T08:13:03.759Z,50.30
2019-05-18T08:15:29.879Z,50.24
2019-05-18T08:17:55.794Z,50.68
2019-05-18T08:20:21.754Z,50.67
2019-05-18T08:22:47.891Z,50.41
2019-05-18T08:25:14.095Z,49.44
2019-05-18T08:27:40.188Z,52.05
2019-05-18T08:30:06.504Z,53.72
2019-05-18T08:32:32.477Z,52.41
2019-05-18T08:34:58.610Z,53.96
2019-05-18T08:37:24.566Z,54.60
2019-05-18T08:39:51.787Z,53.09
2019-05-18T08:42:17.806Z,52.95
2019-05-18T08:44:43.882Z,50.52
2019-05-18T08:47:09.830Z,49.52
2019-05-18T08:49:36.105Z,53.00
2019-05-18T08:52:08.235Z,53.64
2019-05-18T08:54:30.335Z,50.76
2019-05-18T08:56:57.414Z,54.30
2019-05-18T08:59:23.326Z,51.91
2019-05-18T09:01:49.568Z,51.68
2019-05-18T09:04:15.462Z,51.64
2019-05-18T09:06:41.608Z,52.75
2019-05-18T09:09:07.601Z,50.68
2019-05-18T09:11:33.647Z,48.85
2019-05-18T09:14:00.040Z,51.17
2019-05-18T09:16:25.984Z,49.66
2019-05-18T09:18:52.085Z,50.17
2019-05-18T09:21:18.186Z,51.26
2019-05-18T09:23:44.087Z,50.50
2019-05-18T09:26:10.210Z,46.65
2019-05-18T09:28:36.236Z,45.75
2019-05-18T09:31:02.384Z,49.89
2019-05-18T09:33:28.283Z,46.94
2019-05-18T09:35:55.535Z,49.78
2019-05-18T09:38:22.008Z,50.12
2019-05-18T09:40:48.085Z,49.27
2019-05-18T09:43:14.265Z,48.99
2019-05-18T09:45:40.253Z,46.04
2019-05-18T09:48:06.501Z,47.10
2019-05-18T09:50:32.715Z,45.54
2019-05-18T09:52:58.663Z,46.74
2019-05-18T09:55:24.673Z,49.13
2019-05-18T09:57:50.649Z,46.93
2019-05-18T10:00:18.978Z,46.47
2019-05-18T10:02:45.011Z,46.86
2019-05-18T10:05:11.439Z,46.42
2019-05-18T10:07:37.635Z,45.58
2019-05-18T10:10:05.752Z,45.70
2019-05-18T10:12:32.131Z,44.22
2019-05-18T10:14:58.184Z,44.12
2019-05-18T10:17:24.491Z,44.55
2019-05-18T10:19:50.399Z,44.58
2019-05-18T10:22:16.345Z,42.30
2019-05-18T10:24:42.336Z,46.81
2019-05-18T10:27:08.456Z,45.90
2019-05-18T10:29:34.424Z,45.66
2019-05-18T10:32:00.619Z,41.19
2019-05-18T10:34:26.628Z,42.12
2019-05-18T10:36:52.566Z,45.10
2019-05-18T10:39:18.473Z,44.76
2019-05-18T10:41:44.423Z,44.00
2019-05-18T10:44:10.557Z,45.88
2019-05-18T10:46:36.614Z,43.57
2019-05-18T10:49:03.194Z,43.60
2019-05-18T10:51:29.134Z,44.83
2019-05-18T10:53:55.158Z,45.41
2019-05-18T10:56:21.329Z,44.15
2019-05-18T10:58:47.233Z,43.24
2019-05-18T11:01:13.327Z,43.67
2019-05-18T11:03:39.234Z,42.71
2019-05-18T11:06:05.639Z,43.62
2019-05-18T11:08:31.610Z,44.03
2019-05-18T11:10:57.740Z,44.81
2019-05-18T11:13:23.784Z,44.71
2019-05-18T11:15:49.701Z,43.54
2019-05-18T11:18:15.775Z,43.28
2019-05-18T11:20:41.704Z,45.16
2019-05-18T11:23:07.633Z,42.56
2019-05-18T11:25:33.558Z,43.95
2019-05-18T11:27:59.705Z,45.94
2019-05-18T11:30:25.819Z,44.33
2019-05-18T11:32:51.997Z,43.93
2019-05-18T11:35:18.908Z,41.75
2019-05-18T11:37:44.966Z,44.14
2019-05-18T11:40:11.506Z,46.04
2019-05-18T11:42:37.498Z,41.58
2019-05-18T11:45:09.174Z,45.15
2019-05-18T11:47:35.217Z,45.12
2019-05-18T11:50:01.277Z,44.99
2019-05-18T11:52:27.297Z,44.36
2019-05-18T11:54:53.179Z,47.82
2019-05-18T11:57:19.261Z,45.77
2019-05-18T11:59:45.180Z,42.54
2019-05-18T12:02:11.258Z,43.33
2019-05-18T12:04:37.289Z,44.34
2019-05-18T12:07:03.872Z,42.90
2019-05-18T12:09:29.926Z,42.20
2019-05-18T12:11:55.825Z,44.48
2019-05-18T12:14:22.386Z,42.91
2019-05-18T12:16:48.528Z,44.59
2019-05-18T12:19:14.623Z,42.64
2019-05-18T12:21:41.766Z,41.95
2019-05-18T12:24:15.311Z,40.24
2019-05-18T12:26:35.622Z,42.21
2019-05-18T12:29:01.747Z,41.02
2019-05-18T12:31:27.887Z,41.44
2019-05-18T12:33:53.883Z,42.94
2019-05-18T12:36:19.935Z,40.34
2019-05-18T12:38:46.944Z,41.53
2019-05-18T12:41:12.983Z,42.19
2019-05-18T12:43:38.987Z,40.85
2019-05-18T12:46:04.945Z,41.85
2019-05-18T12:48:30.851Z,38.53
2019-05-18T12:50:56.894Z,38.66
2019-05-18T12:53:22.834Z,41.81
2019-05-18T12:55:48.774Z,40.21
2019-05-18T12:58:14.861Z,41.11
2019-05-18T13:00:40.873Z,39.80
2019-05-18T13:03:06.962Z,38.43
2019-05-18T13:05:33.054Z,41.94
2019-05-18T13:07:59.283Z,41.25
2019-05-18T13:10:25.205Z,40.97
2019-05-18T13:12:51.116Z,39.46
2019-05-18T13:15:17.692Z,38.92
2019-05-18T13:17:43.782Z,38.98
2019-05-18T13:20:11.803Z,39.23
2019-05-18T13:22:38.079Z,38.22
2019-05-18T13:25:04.738Z,37.34
2019-05-18T13:27:39.303Z,39.61
2019-05-18T13:29:58.708Z,40.05
2019-05-18T13:32:24.692Z,40.42
2019-05-18T13:34:50.778Z,39.50
2019-05-18T13:37:16.767Z,39.50
2019-05-18T13:39:42.709Z,39.07
2019-05-18T13:42:08.611Z,37.76
2019-05-18T13:44:34.558Z,38.70
2019-05-18T13:47:00.466Z,40.64
2019-05-18T13:49:26.422Z,39.77
2019-05-18T13:51:52.325Z,40.17
2019-05-18T13:54:18.272Z,40.93
2019-05-18T13:56:44.334Z,38.70
2019-05-18T13:59:10.285Z,37.49
2019-05-18T14:01:36.194Z,41.38
2019-05-18T14:04:02.277Z,37.39
2019-05-18T14:06:28.194Z,38.88
2019-05-18T14:08:54.239Z,36.13
2019-05-18T14:11:20.245Z,40.35
2019-05-18T14:13:46.210Z,41.38
2019-05-18T14:16:12.251Z,36.48
2019-05-18T14:18:38.210Z,38.88
2019-05-18T14:21:04.366Z,40.58
2019-05-18T14:23:30.279Z,38.92
2019-05-18T14:25:56.475Z,40.13
2019-05-18T14:28:22.616Z,37.68
2019-05-18T14:30:48.782Z,38.27
2019-05-18T14:33:15.834Z,40.10
2019-05-18T14:35:41.887Z,40.45
2019-05-18T14:38:09.201Z,39.41
2019-05-18T14:40:35.317Z,40.48
2019-05-18T14:43:01.367Z,38.04
2019-05-18T14:45:28.727Z,40.41
2019-05-18T14:47:54.834Z,39.01
2019-05-18T14:50:21.445Z,39.21
2019-05-18T14:52:47.492Z,41.90
2019-05-18T14:55:13.867Z,41.29
2019-05-18T14:57:39.775Z,40.77
2019-05-18T15:00:06.889Z,40.17
2019-05-18T15:02:32.847Z,40.12
2019-05-18T15:04:58.768Z,41.31
2019-05-18T15:07:25.045Z,40.67
2019-05-18T15:09:51.143Z,40.56
2019-05-18T15:12:17.287Z,40.13
2019-05-18T15:14:43.601Z,37.98
2019-05-18T15:17:10.739Z,36.75
2019-05-18T15:19:36.691Z,36.22
2019-05-18T15:22:02.924Z,37.71
2019-05-18T15:24:28.821Z,39.14
2019-05-18T15:26:54.767Z,39.60
2019-05-18T15:29:20.701Z,37.47
2019-05-18T15:31:46.809Z,36.99
2019-05-18T15:34:12.837Z,35.16
2019-05-18T15:36:38.794Z,38.04
2019-05-18T15:39:05.494Z,40.77
2019-05-18T15:41:31.541Z,39.28
2019-05-18T15:43:57.674Z,39.92
2019-05-18T15:46:23.621Z,37.90
2019-05-18T15:48:49.932Z,36.50
2019-05-18T15:51:16.026Z,38.38
2019-05-18T15:53:42.273Z,38.23
2019-05-18T15:56:08.314Z,38.60
2019-05-18T15:58:34.356Z,38.15
2019-05-18T16:01:00.401Z,39.30
2019-05-18T16:03:26.519Z,37.23
2019-05-18T16:08:18.687Z,37.18
2019-05-18T16:10:44.886Z,40.56
2019-05-18T16:13:10.935Z,36.89
2019-05-18T16:15:36.882Z,36.07
2019-05-18T16:18:04.198Z,36.69
2019-05-18T16:20:30.170Z,37.82
2019-05-18T16:22:56.363Z,37.60
2019-05-18T16:25:22.370Z,37.63
2019-05-18T16:27:48.330Z,38.31
2019-05-18T16:30:15.041Z,39.31
2019-05-18T16:32:41.229Z,38.28
2019-05-18T16:35:07.641Z,36.64
2019-05-18T16:37:33.827Z,38.87
2019-05-18T16:39:59.841Z,38.39
2019-05-18T16:42:26.445Z,41.34
2019-05-18T16:44:52.359Z,42.72
2019-05-18T16:47:18.314Z,43.08
2019-05-18T16:49:44.332Z,43.64
2019-05-18T16:52:10.277Z,43.80
2019-05-18T16:54:36.290Z,44.27
2019-05-18T16:57:02.403Z,44.90
2019-05-18T16:59:28.359Z,44.41
2019-05-18T17:01:55.362Z,45.60
2019-05-18T17:04:21.382Z,46.83
2019-05-18T17:06:47.888Z,46.16
2019-05-18T17:09:14.407Z,45.74
2019-05-18T17:11:40.352Z,44.90
2019-05-18T17:14:06.289Z,45.57
2019-05-18T17:16:32.250Z,46.42
2019-05-18T17:18:58.287Z,46.67
2019-05-18T17:21:24.198Z,46.77
2019-05-18T17:23:53.395Z,47.51
2019-05-18T17:26:18.181Z,46.82
2019-05-18T17:28:44.144Z,46.60
2019-05-18T17:31:10.043Z,46.28
2019-05-18T17:33:35.977Z,45.75
2019-05-18T17:36:01.922Z,46.73
2019-05-18T17:38:29.032Z,46.06
2019-05-18T17:40:54.943Z,45.18
2019-05-18T17:43:20.898Z,45.42
2019-05-18T17:45:46.927Z,45.79
2019-05-18T17:48:13.038Z,46.53
2019-05-18T17:50:39.087Z,46.47
2019-05-18T17:53:05.097Z,47.22
2019-05-18T17:55:31.136Z,48.82
2019-05-18T17:57:57.343Z,49.76
2019-05-18T18:00:23.400Z,48.51
2019-05-18T18:02:49.332Z,48.77
2019-05-18T18:05:15.471Z,47.95
2019-05-18T18:07:41.644Z,48.58
2019-05-18T18:10:08.428Z,48.70
2019-05-18T18:12:34.443Z,48.43
2019-05-18T18:15:00.379Z,48.34
2019-05-18T18:17:26.399Z,48.40
2019-05-18T18:19:52.558Z,48.56
2019-05-18T18:22:18.558Z,49.32
2019-05-18T18:24:44.709Z,49.44
2019-05-18T18:27:24.121Z,49.96
2019-05-18T18:29:38.729Z,50.88
2019-05-18T18:32:04.740Z,52.39
2019-05-18T18:34:30.882Z,52.70
2019-05-18T18:36:56.834Z,54.68
2019-05-18T18:39:23.772Z,55.08
2019-05-18T18:41:50.008Z,54.65
2019-05-18T18:44:15.945Z,55.42
2019-05-18T18:46:41.968Z,53.11
2019-05-18T18:49:07.935Z,51.74
2019-05-18T18:51:33.852Z,52.74
2019-05-18T18:54:01.156Z,51.97
2019-05-18T18:56:28.301Z,54.92
2019-05-18T18:58:54.847Z,54.21
2019-05-18T19:01:20.991Z,53.00
2019-05-18T19:03:46.936Z,53.95
2019-05-18T19:06:12.970Z,52.90
2019-05-18T19:08:38.906Z,53.81
2019-05-18T19:11:05.125Z,55.08
2019-05-18T19:13:31.268Z,55.47
2019-05-18T19:15:57.267Z,56.25
2019-05-18T19:18:23.218Z,55.06
2019-05-18T19:20:49.272Z,54.81
2019-05-18T19:23:15.219Z,55.09
2019-05-18T19:25:41.253Z,55.09
2019-05-18T19:28:07.517Z,55.55
2019-05-18T19:30:33.515Z,56.04
2019-05-18T19:32:59.488Z,56.12
2019-05-18T19:35:25.429Z,57.20
2019-05-18T19:37:51.921Z,56.79
2019-05-18T19:40:18.247Z,55.99
2019-05-18T19:42:44.165Z,55.87
2019-05-18T19:45:10.576Z,56.05
2019-05-18T19:47:36.933Z,56.40
2019-05-18T19:50:05.424Z,55.92
2019-05-18T19:52:31.325Z,56.06
2019-05-18T19:54:57.680Z,56.09
2019-05-18T19:57:23.669Z,56.91
2019-05-18T19:59:49.591Z,56.46
2019-05-18T20:02:18.314Z,57.25
2019-05-18T20:04:43.493Z,58.48
2019-05-18T20:07:09.586Z,57.52
2019-05-18T20:09:35.647Z,58.93
2019-05-18T20:12:01.657Z,57.84
2019-05-18T20:14:27.703Z,57.29
2019-05-18T20:16:53.709Z,57.91
2019-05-18T20:19:19.754Z,58.19
2019-05-18T20:21:45.786Z,58.31
2019-05-18T20:24:11.731Z,59.04
2019-05-18T20:26:38.737Z,58.77
2019-05-18T20:29:04.887Z,59.30
2019-05-18T20:31:30.792Z,58.88
2019-05-18T20:33:57.941Z,60.55
2019-05-18T20:36:23.912Z,62.91
2019-05-18T20:38:50.188Z,62.38
2019-05-18T20:41:16.090Z,63.43
2019-05-18T20:43:43.180Z,64.68
2019-05-18T20:46:09.085Z,65.37
2019-05-18T20:48:35.033Z,64.95
2019-05-18T20:51:01.033Z,64.32
2019-05-18T20:53:26.988Z,65.01
2019-05-18T20:55:53.160Z,65.04
2019-05-18T20:58:19.115Z,65.20
2019-05-18T21:00:45.211Z,65.84
2019-05-18T21:03:11.167Z,66.19
2019-05-18T21:05:37.189Z,66.24
2019-05-18T21:08:03.494Z,66.77
2019-05-18T21:10:29.689Z,66.98
2019-05-18T21:12:55.601Z,66.88
2019-05-18T21:15:21.747Z,67.14
2019-05-18T21:17:48.294Z,66.91
2019-05-18T21:20:14.518Z,66.92
2019-05-18T21:22:40.437Z,67.16
2019-05-18T21:25:06.786Z,67.67
2019-05-18T21:27:32.747Z,66.75
2019-05-18T21:29:58.653Z,66.00
2019-05-18T21:32:25.702Z,66.17
2019-05-18T21:34:51.738Z,66.51
2019-05-18T21:37:17.712Z,67.13
2019-05-18T21:39:43.701Z,68.25
2019-05-18T21:42:09.674Z,68.64
2019-05-18T21:44:35.814Z,68.97
2019-05-18T21:47:01.821Z,68.85
2019-05-18T21:49:27.725Z,68.92
2019-05-18T21:51:53.818Z,69.30
2019-05-18T21:54:19.738Z,69.40
2019-05-18T21:56:45.646Z,69.33
2019-05-18T21:59:12.620Z,68.23
2019-05-18T22:01:38.726Z,68.03
2019-05-18T22:04:04.947Z,68.69
2019-05-18T22:06:30.967Z,68.69
2019-05-18T22:08:56.945Z,69.17
2019-05-18T22:11:22.955Z,69.04
2019-05-18T22:13:50.069Z,69.63
2019-05-18T22:16:15.986Z,70.00
2019-05-18T22:18:42.059Z,70.00
2019-05-18T22:21:08.052Z,70.04
2019-05-18T22:23:34.027Z,69.72
2019-05-18T22:25:59.971Z,69.72
2019-05-18T22:28:25.921Z,69.52
2019-05-18T22:30:51.851Z,69.62
2019-05-18T22:33:17.902Z,69.78
2019-05-18T22:35:43.816Z,70.88
2019-05-18T22:38:09.755Z,70.41
2019-05-18T22:40:35.661Z,71.45
2019-05-18T22:43:01.602Z,71.40
2019-05-18T22:45:27.659Z,70.38
2019-05-18T22:47:54.763Z,70.64
2019-05-18T22:50:20.986Z,71.31
2019-05-18T22:52:47.003Z,71.40
2019-05-18T22:55:13.198Z,71.01
2019-05-18T22:57:40.420Z,70.59
2019-05-18T23:00:06.841Z,69.86
2019-05-18T23:02:34.822Z,70.14
2019-05-18T23:05:00.918Z,70.07
2019-05-18T23:07:26.866Z,70.28
2019-05-18T23:09:52.806Z,69.31
2019-05-18T23:12:18.724Z,71.92
2019-05-18T23:14:44.628Z,71.49
2019-05-18T23:17:10.579Z,72.29
2019-05-18T23:19:36.506Z,71.24
2019-05-18T23:24:40.138Z,70.33
2019-05-18T23:27:06.099Z,71.37
2019-05-18T23:29:32.124Z,72.39
2019-05-18T23:31:58.074Z,70.97
2019-05-18T23:34:24.302Z,72.49
2019-05-18T23:36:50.240Z,72.21
2019-05-18T23:39:16.184Z,71.69
2019-05-18T23:41:42.097Z,71.65
2019-05-18T23:44:08.029Z,71.83
2019-05-18T23:46:33.935Z,72.51
2019-05-18T23:49:10.465Z,73.08
2019-05-18T23:51:28.792Z,72.62
2019-05-18T23:53:54.710Z,72.27
2019-05-18T23:56:21.798Z,71.73
2019-05-18T23:58:47.709Z,72.62
